Time;durP1;ratioP1;P1;durP2;ratioP2;P2;SDS_P1;SDS_P2;PMS_P1;PMS_P2;Temp;Humidity;BMP_temperature;BMP_pressure;BME280_temperature;BME280_humidity;BME280_pressure;Samples;Min_cycle;Max_cycle;Signal;HPM_P1;HPM_P2
2021/05/13 00:02:24;;;;;;;1.45;1.13;;;;;15.20;100836.00;;;;5024021;28;20200;-82
2021/05/13 00:07:37;;;;;;;1.83;1.15;;;;;15.10;100836.00;;;;5026100;28;20235;-83
2021/05/13 00:10:06;;;;;;;1.85;1.35;;;;;15.10;100844.00;;;;5010415;28;20229;-83
2021/05/13 00:15:38;;;;;;;4.15;1.58;;;;;15.00;100831.00;;;;5014888;28;20214;-83
2021/05/13 00:18:06;;;;;;;3.58;1.50;;;;;15.00;100837.00;;;;5027463;28;20201;-83
2021/05/13 00:20:35;;;;;;;4.30;1.67;;;;;15.00;100833.00;;;;5029341;28;20220;-83
2021/05/13 00:23:05;;;;;;;1.95;1.48;;;;;15.00;100837.00;;;;5026570;28;20211;-83
2021/05/13 00:31:58;;;;;;;2.78;1.40;;;;;14.80;100839.00;;;;5011464;28;20289;-82
2021/05/13 00:34:26;;;;;;;2.88;1.40;;;;;14.90;100843.00;;;;5009887;28;20238;-82
2021/05/13 00:36:53;;;;;;;2.92;2.03;;;;;14.90;100844.00;;;;5014755;28;20195;-83
2021/05/13 00:39:21;;;;;;;2.17;1.42;;;;;14.90;100839.00;;;;5008381;28;20211;-82
2021/05/13 00:48:05;;;;;;;1.10;1.00;;;;;14.80;100822.00;;;;5020161;28;20705;-83
2021/05/13 00:50:34;;;;;;;2.03;1.17;;;;;14.80;100821.00;;;;5026259;28;20227;-82
2021/05/13 00:53:06;;;;;;;2.75;1.20;;;;;14.70;100819.00;;;;5025649;28;20270;-82
2021/05/13 00:55:35;;;;;;;1.60;1.20;;;;;14.70;100810.00;;;;5018163;28;20204;-82
2021/05/13 01:01:26;;;;;;;2.45;1.58;;;;;14.60;100812.00;;;;5027847;28;20203;-82
2021/05/13 01:03:53;;;;;;;2.83;1.38;;;;;14.70;100813.00;;;;5018656;28;20203;-82
2021/05/13 01:09:42;;;;;;;2.05;1.23;;;;;14.60;100807.00;;;;5026779;28;20262;-82
2021/05/13 01:18:19;;;;;;;3.13;1.75;;;;;14.60;100805.00;;;;5016314;28;20319;-82
2021/05/13 01:29:45;;;;;;;2.38;1.45;;;;;14.40;100809.00;;;;5021977;28;20616;-82
2021/05/13 01:32:30;;;;;;;3.10;1.88;;;;;14.30;100805.00;;;;5022196;28;20683;-82
2021/05/13 01:43:49;;;;;;;4.03;1.60;;;;;14.30;100803.00;;;;5029196;28;20196;-82
2021/05/13 01:46:35;;;;;;;1.75;0.88;;;;;14.20;100805.00;;;;5021426;28;20330;-82
2021/05/13 01:49:02;;;;;;;4.28;1.58;;;;;14.30;100809.00;;;;5012122;28;20196;-82
2021/05/13 01:54:15;;;;;;;4.40;1.45;;;;;14.30;100810.00;;;;5014086;28;20290;-82
2021/05/13 01:59:28;;;;;;;1.55;1.27;;;;;14.30;100808.00;;;;5010615;28;20228;-82
2021/05/13 02:02:15;;;;;;;3.10;1.58;;;;;14.10;100805.00;;;;5020703;28;20192;-82
2021/05/13 02:05:19;;;;;;;3.08;1.42;;;;;14.10;100806.00;;;;5029171;28;20283;-82
2021/05/13 02:07:46;;;;;;;5.43;2.33;;;;;14.20;100796.00;;;;5015464;28;20205;-82
2021/05/13 02:13:19;;;;;;;1.90;1.40;;;;;14.10;100792.00;;;;5025203;28;20301;-82
2021/05/13 02:16:23;;;;;;;2.22;1.08;;;;;14.10;100794.00;;;;5019674;28;20211;-82
2021/05/13 02:18:50;;;;;;;1.83;1.38;;;;;14.10;100796.00;;;;5015324;28;20212;-82
2021/05/13 02:21:16;;;;;;;4.07;1.58;;;;;14.10;100797.00;;;;5015696;28;20574;-82
2021/05/13 02:23:43;;;;;;;2.78;1.77;;;;;14.10;100784.00;;;;5011607;28;20263;-82
2021/05/13 02:28:56;;;;;;;1.98;1.40;;;;;14.10;100789.00;;;;5012950;28;20312;-82
2021/05/13 02:31:42;;;;;;;5.00;2.03;;;;;14.00;100780.00;;;;5017328;28;20232;-82
2021/05/13 02:34:08;;;;;;;2.28;1.38;;;;;14.10;100780.00;;;;5030570;28;20200;-82
2021/05/13 02:39:21;;;;;;;2.25;1.50;;;;;14.00;100787.00;;;;5030490;28;20673;-82
2021/05/13 02:42:07;;;;;;;2.65;1.20;;;;;13.90;100789.00;;;;5024937;28;20196;-82
2021/05/13 02:44:53;;;;;;;2.38;1.50;;;;;14.00;100784.00;;;;5011604;28;20539;-82
2021/05/13 02:50:24;;;;;;;2.53;1.52;;;;;13.90;100786.00;;;;5023551;28;20725;-82
2021/05/13 02:52:51;;;;;;;2.00;1.65;;;;;13.90;100784.00;;;;5015424;28;20200;-82
2021/05/13 02:55:17;;;;;;;3.15;1.40;;;;;13.90;100778.00;;;;5010978;28;20438;-83
2021/05/13 02:57:46;;;;;;;1.88;1.50;;;;;13.90;100778.00;;;;5025809;28;20201;-82
2021/05/13 03:00:23;;;;;;;3.35;1.70;;;;;13.90;100772.00;;;;5014234;28;20616;-82
2021/05/13 03:02:50;;;;;;;2.30;1.83;;;;;13.90;100768.00;;;;5022561;28;20196;-82
2021/05/13 03:08:20;;;;;;;2.85;1.45;;;;;13.80;100761.00;;;;5010253;28;20658;-82
2021/05/13 03:10:47;;;;;;;2.10;1.40;;;;;13.80;100757.00;;;;5027634;28;20220;-82
2021/05/13 03:19:04;;;;;;;1.40;1.30;;;;;13.80;100755.00;;;;5022467;28;20246;-83
2021/05/13 03:21:52;;;;;;;3.30;1.27;;;;;13.60;100747.00;;;;5024159;28;20211;-82
2021/05/13 03:24:26;;;;;;;2.33;1.40;;;;;13.70;100754.00;;;;5013009;28;20224;-82
2021/05/13 03:27:03;;;;;;;3.03;1.48;;;;;13.70;100748.00;;;;5030184;28;20196;-83
2021/05/13 03:30:06;;;;;;;2.03;1.23;;;;;13.60;100742.00;;;;5027592;28;20758;-82
2021/05/13 03:32:53;;;;;;;2.28;1.52;;;;;13.60;100740.00;;;;5019981;28;20222;-82
2021/05/13 03:38:24;;;;;;;1.20;1.02;;;;;13.70;100730.00;;;;5010665;28;20246;-82
2021/05/13 03:41:09;;;;;;;2.35;1.35;;;;;13.60;100732.00;;;;5010027;28;20207;-82
2021/05/13 03:43:36;;;;;;;1.20;0.95;;;;;13.60;100732.00;;;;5025149;28;20254;-82
2021/05/13 03:52:10;;;;;;;2.90;1.58;;;;;13.50;100726.00;;;;5011703;28;20328;-81
2021/05/13 04:03:48;;;;;;;1.38;1.25;;;;;13.50;100715.00;;;;5024324;28;20211;-81
2021/05/13 04:06:34;;;;;;;1.73;1.40;;;;;13.50;100722.00;;;;5017542;28;20287;-81
2021/05/13 04:09:05;;;;;;;2.03;1.63;;;;;13.50;100721.00;;;;5022250;28;20216;-81
2021/05/13 04:14:56;;;;;;;2.50;1.92;;;;;13.50;100721.00;;;;5009933;28;20232;-82
2021/05/13 04:17:41;;;;;;;2.13;1.50;;;;;13.40;100723.00;;;;5021098;28;20346;-82
2021/05/13 04:20:09;;;;;;;2.05;1.73;;;;;13.50;100724.00;;;;5021951;28;20220;-81
2021/05/13 04:22:37;;;;;;;2.03;1.67;;;;;13.50;100724.00;;;;5014999;28;20196;-81
2021/05/13 04:25:05;;;;;;;3.00;1.48;;;;;13.60;100730.00;;;;5028250;28;20590;-82
2021/05/13 04:27:50;;;;;;;3.42;1.80;;;;;13.50;100725.00;;;;5020033;28;20686;-82
2021/05/13 04:30:17;;;;;;;3.13;1.95;;;;;13.60;100731.00;;;;5011385;28;20224;-82
2021/05/13 04:38:16;;;;;;;2.30;2.10;;;;;13.70;100733.00;;;;5017564;28;20251;-81
2021/05/13 04:41:02;;;;;;;3.90;2.00;;;;;13.70;100726.00;;;;5028689;28;20200;-81
2021/05/13 04:43:48;;;;;;;2.90;2.13;;;;;13.80;100727.00;;;;5021255;28;20196;-82
2021/05/13 04:46:15;;;;;;;1.90;1.45;;;;;13.90;100728.00;;;;5020709;28;20205;-82
2021/05/13 04:48:55;;;;;;;1.85;1.50;;;;;13.90;100730.00;;;;5021479;28;20204;-82
2021/05/13 04:51:25;;;;;;;1.98;1.58;;;;;14.00;100734.00;;;;5028514;28;20231;-81
2021/05/13 04:53:53;;;;;;;2.70;1.48;;;;;14.10;100728.00;;;;5025006;28;20197;-81
2021/05/13 04:59:05;;;;;;;1.83;1.60;;;;;14.20;100720.00;;;;5019466;28;20208;-81
2021/05/13 05:01:50;;;;;;;1.63;1.50;;;;;14.30;100715.00;;;;5021532;28;20197;-82
2021/05/13 05:07:02;;;;;;;1.63;1.00;;;;;14.40;100704.00;;;;5025728;28;20218;-81
2021/05/13 05:12:15;;;;;;;3.95;1.70;;;;;14.60;100708.00;;;;5010966;28;20286;-82
2021/05/13 05:14:42;;;;;;;2.53;1.65;;;;;14.60;100705.00;;;;5010841;28;20200;-82
2021/05/13 05:23:36;;;;;;;2.45;1.65;;;;;14.90;100701.00;;;;5022126;28;20227;-82
2021/05/13 05:28:48;;;;;;;3.90;1.90;;;;;15.10;100702.00;;;;5024639;28;20211;-81
2021/05/13 05:31:34;;;;;;;2.13;1.15;;;;;15.10;100695.00;;;;5026656;28;20633;-81
2021/05/13 05:40:08;;;;;;;1.63;1.35;;;;;15.30;100692.00;;;;5027667;28;20290;-81
2021/05/13 05:42:35;;;;;;;2.67;1.40;;;;;15.50;100688.00;;;;5019315;28;20570;-80
2021/05/13 05:45:03;;;;;;;2.38;1.60;;;;;15.60;100700.00;;;;5023291;28;20594;-80
2021/05/13 05:47:48;;;;;;;2.92;1.95;;;;;15.70;100684.00;;;;5009188;28;20220;-81
2021/05/13 05:50:15;;;;;;;3.17;2.22;;;;;15.80;100686.00;;;;5013838;28;20221;-81
2021/05/13 05:52:44;;;;;;;2.60;1.73;;;;;15.80;100691.00;;;;5018817;28;20212;-83
2021/05/13 05:57:58;;;;;;;4.07;2.58;;;;;16.00;100681.00;;;;5025277;28;20266;-83
2021/05/13 06:00:44;;;;;;;3.00;2.58;;;;;16.00;100681.00;;;;5016573;28;20208;-84
2021/05/13 06:03:29;;;;;;;3.00;2.22;;;;;16.20;100684.00;;;;5024098;28;20200;-84
2021/05/13 06:05:56;;;;;;;3.45;2.35;;;;;16.30;100689.00;;;;5022228;28;20615;-84
2021/05/13 06:08:22;;;;;;;3.38;2.95;;;;;16.40;100678.00;;;;5021662;28;20201;-83
2021/05/13 06:11:08;;;;;;;5.72;3.13;;;;;16.50;100682.00;;;;5025901;28;20220;-83
2021/05/13 06:13:54;;;;;;;3.88;2.35;;;;;16.60;100685.00;;;;5024535;28;20196;-84
2021/05/13 06:19:25;;;;;;;4.72;2.83;;;;;16.80;100681.00;;;;5024783;28;20254;-84
2021/05/13 06:22:10;;;;;;;5.82;3.17;;;;;16.90;100674.00;;;;5022740;28;20208;-84
2021/05/13 06:24:55;;;;;;;3.60;2.80;;;;;16.90;100667.00;;;;5026590;28;20204;-84
2021/05/13 06:27:59;;;;;;;6.03;2.97;;;;;17.00;100670.00;;;;5025799;28;20211;-85
2021/05/13 06:30:46;;;;;;;3.67;2.63;;;;;17.10;100663.00;;;;5025878;28;20254;-83
2021/05/13 06:33:32;;;;;;;3.28;2.60;;;;;17.20;100664.00;;;;5023338;28;20192;-84
2021/05/13 06:36:17;;;;;;;4.00;3.40;;;;;17.30;100659.00;;;;5018254;28;20224;-85
2021/05/13 06:38:46;;;;;;;3.60;3.25;;;;;17.50;100658.00;;;;5023918;28;20210;-84
2021/05/13 06:41:31;;;;;;;4.00;3.60;;;;;17.50;100658.00;;;;5025680;28;20204;-87
2021/05/13 06:47:03;;;;;;;4.82;3.20;;;;;17.80;100663.00;;;;5014747;28;20212;-84
2021/05/13 06:49:49;;;;;;;4.05;3.63;;;;;17.80;100662.00;;;;5013233;28;20525;-84
2021/05/13 07:00:29;;;;;;;4.35;3.10;;;;;18.30;100657.00;;;;5025075;28;20215;-83
2021/05/13 07:02:57;;;;;;;3.88;3.50;;;;;18.40;100660.00;;;;5017455;28;20196;-81
2021/05/13 07:08:09;;;;;;;4.93;3.42;;;;;18.60;100663.00;;;;5029240;28;20207;-86
2021/05/13 07:10:36;;;;;;;4.65;3.55;;;;;18.70;100661.00;;;;5015750;28;21262;-83
2021/05/13 07:16:09;;;;;;;3.35;3.05;;;;;18.90;100657.00;;;;5029126;28;20208;-84
2021/05/13 07:22:01;;;;;;;4.85;3.67;;;;;19.10;100669.00;;;;5024962;28;20202;-86
2021/05/13 07:24:48;;;;;;;4.93;4.00;;;;;19.30;100660.00;;;;5010611;28;20193;-86
2021/05/13 07:27:14;;;;;;;3.35;2.78;;;;;19.40;100664.00;;;;5018146;28;20631;-85
2021/05/13 07:30:00;;;;;;;5.32;4.10;;;;;19.40;100670.00;;;;5029309;28;20936;-84
2021/05/13 07:35:16;;;;;;;4.47;2.92;;;;;19.70;100662.00;;;;5020293;28;20291;-85
2021/05/13 07:37:43;;;;;;;4.53;3.67;;;;;19.90;100677.00;;;;5009918;28;20675;-85
2021/05/13 07:40:11;;;;;;;6.57;4.72;;;;;20.00;100669.00;;;;5009375;28;20201;-85
2021/05/13 07:42:38;;;;;;;4.85;3.65;;;;;20.10;100668.00;;;;5011527;28;20201;-85
2021/05/13 07:45:24;;;;;;;4.45;4.05;;;;;20.10;100665.00;;;;5024559;28;20220;-84
2021/05/13 07:50:55;;;;;;;4.43;4.03;;;;;20.50;100664.00;;;;5017625;28;20218;-84
2021/05/13 07:53:41;;;;;;;4.47;4.00;;;;;20.50;100662.00;;;;5009732;28;20200;-84
2021/05/13 07:56:08;;;;;;;4.63;3.80;;;;;20.70;100666.00;;;;5019887;28;20192;-83
2021/05/13 07:58:53;;;;;;;5.00;3.95;;;;;20.70;100657.00;;;;5017280;28;20671;-84
2021/05/13 08:01:38;;;;;;;4.05;3.65;;;;;20.90;100660.00;;;;5009868;28;20655;-82
2021/05/13 08:07:28;;;;;;;4.28;3.63;;;;;21.20;100656.00;;;;5015829;28;20648;-84
2021/05/13 08:10:13;;;;;;;4.40;4.00;;;;;21.40;100667.00;;;;5017293;28;20215;-85
2021/05/13 08:16:03;;;;;;;6.20;3.22;;;;;21.50;100667.00;;;;5020933;28;20262;-84
2021/05/13 08:18:30;;;;;;;5.90;3.88;;;;;21.70;100662.00;;;;5015600;28;20234;-82
2021/05/13 08:21:15;;;;;;;5.50;3.58;;;;;21.80;100657.00;;;;5018343;28;20225;-84
2021/05/13 08:24:01;;;;;;;7.28;4.00;;;;;22.00;100656.00;;;;5010953;28;20200;-84
2021/05/13 08:26:28;;;;;;;3.53;3.20;;;;;22.20;100662.00;;;;5009923;28;20730;-83
2021/05/13 08:28:55;;;;;;;4.18;3.65;;;;;22.40;100657.00;;;;5014548;28;20552;-84
2021/05/13 08:31:22;;;;;;;6.40;4.63;;;;;22.60;100656.00;;;;5017862;28;20223;-81
2021/05/13 08:33:49;;;;;;;5.68;4.28;;;;;22.70;100657.00;;;;5013736;28;20204;-82
2021/05/13 08:36:15;;;;;;;6.88;5.03;;;;;22.80;100651.00;;;;5027468;28;20197;-80
2021/05/13 08:39:02;;;;;;;5.32;4.30;;;;;22.90;100653.00;;;;5019461;28;20201;-81
2021/05/13 08:41:29;;;;;;;4.65;4.20;;;;;23.10;100652.00;;;;5024686;28;20608;-81
2021/05/13 08:44:33;;;;;;;5.40;3.55;;;;;23.10;100648.00;;;;5010224;28;20201;-82
2021/05/13 08:53:08;;;;;;;3.67;3.03;;;;;23.50;100653.00;;;;5008316;28;20255;-80
2021/05/13 08:55:54;;;;;;;4.43;3.03;;;;;23.60;100655.00;;;;5007471;28;20205;-81
2021/05/13 08:58:21;;;;;;;5.55;2.85;;;;;23.80;100651.00;;;;5013224;28;20203;-82
2021/05/13 09:01:10;;;;;;;3.72;3.05;;;;;23.90;100648.00;;;;5009361;28;20675;-81
2021/05/13 09:03:37;;;;;;;3.35;3.08;;;;;24.10;100648.00;;;;5008567;28;20663;-82
2021/05/13 09:06:27;;;;;;;3.40;3.08;;;;;24.20;100646.00;;;;5011920;28;20204;-82
2021/05/13 09:09:14;;;;;;;3.53;2.67;;;;;24.30;100641.00;;;;5013360;28;20216;-83
2021/05/13 09:11:48;;;;;;;3.10;2.50;;;;;24.50;100651.00;;;;5012717;28;20231;-83
2021/05/13 09:14:22;;;;;;;3.00;2.53;;;;;24.50;100646.00;;;;5012464;28;20224;-82
2021/05/13 09:17:07;;;;;;;5.47;2.75;;;;;24.50;100638.00;;;;5017239;28;20224;-81
2021/05/13 09:26:07;;;;;;;3.58;2.75;;;;;24.90;100634.00;;;;5020306;28;20247;-78
2021/05/13 09:29:07;;;;;;;4.55;2.60;;;;;25.10;100642.00;;;;5008332;28;20663;-77
2021/05/13 09:34:30;;;;;;;3.63;2.60;;;;;25.40;100643.00;;;;5008380;28;20327;-78
2021/05/13 09:37:15;;;;;;;3.97;2.50;;;;;25.40;100636.00;;;;5008495;28;20893;-79
2021/05/13 09:39:46;;;;;;;3.83;2.50;;;;;25.60;100633.00;;;;5008428;28;20193;-78
2021/05/13 09:42:16;;;;;;;3.38;2.35;;;;;25.60;100633.00;;;;5007279;28;20667;-79
2021/05/13 09:44:46;;;;;;;5.15;2.85;;;;;25.60;100631.00;;;;5008765;28;20279;-78
2021/05/13 09:47:20;;;;;;;4.50;2.83;;;;;25.60;100627.00;;;;5008148;28;20197;-80
2021/05/13 09:50:11;;;;;;;4.80;2.92;;;;;25.50;100626.00;;;;5016999;28;20240;-79
2021/05/13 09:52:39;;;;;;;4.13;2.67;;;;;25.60;100624.00;;;;5027980;28;20201;-78
2021/05/13 09:58:32;;;;;;;5.38;2.92;;;;;25.70;100617.00;;;;5032100;28;20234;-79
2021/05/13 10:00:58;;;;;;;4.07;3.20;;;;;25.90;100629.00;;;;5030795;28;20756;-78
2021/05/13 10:04:02;;;;;;;3.17;2.58;;;;;25.90;100630.00;;;;5031919;28;20211;-79
2021/05/13 10:06:30;;;;;;;3.95;2.58;;;;;26.10;100632.00;;;;5030731;28;20212;-78
2021/05/13 10:08:57;;;;;;;4.20;2.65;;;;;26.30;100626.00;;;;5031797;28;20209;-79
2021/05/13 10:11:24;;;;;;;3.42;2.80;;;;;26.40;100621.00;;;;5030692;28;20721;-79
2021/05/13 10:14:10;;;;;;;3.42;2.85;;;;;26.60;100617.00;;;;5032300;28;20201;-79
2021/05/13 10:16:55;;;;;;;4.55;2.65;;;;;26.70;100617.00;;;;5031575;28;20208;-78
2021/05/13 10:19:26;;;;;;;4.15;2.60;;;;;26.80;100614.00;;;;5030857;28;20216;-79
2021/05/13 10:22:14;;;;;;;3.03;2.47;;;;;26.90;100616.00;;;;5031643;28;20204;-79
2021/05/13 10:24:59;;;;;;;3.08;1.67;;;;;27.10;100608.00;;;;5016321;28;20213;-80
2021/05/13 10:27:31;;;;;;;3.00;2.10;;;;;27.10;100602.00;;;;5011295;28;20208;-79
2021/05/13 10:30:00;;;;;;;3.17;1.80;;;;;27.30;100600.00;;;;5011374;28;20197;-79
2021/05/13 10:35:35;;;;;;;4.00;2.33;;;;;27.40;100609.00;;;;5011405;28;20204;-78
2021/05/13 10:38:39;;;;;;;3.83;2.20;;;;;27.40;100597.00;;;;5011350;28;20228;-78
2021/05/13 10:41:35;;;;;;;3.85;1.80;;;;;27.50;100599.00;;;;5011325;28;20212;-79
2021/05/13 10:44:39;;;;;;;2.28;1.92;;;;;27.50;100588.00;;;;5018659;28;20311;-78
2021/05/13 10:47:25;;;;;;;3.47;2.25;;;;;27.70;100593.00;;;;5030980;28;20208;-78
2021/05/13 10:49:52;;;;;;;3.53;1.42;;;;;27.80;100592.00;;;;5031316;28;20204;-78
2021/05/13 10:52:40;;;;;;;3.55;1.80;;;;;27.80;100588.00;;;;5029933;28;20237;-78
2021/05/13 10:55:44;;;;;;;2.45;1.92;;;;;27.90;100595.00;;;;5031195;28;20196;-78
2021/05/13 10:58:30;;;;;;;3.15;1.90;;;;;28.10;100592.00;;;;5018481;28;20204;-79
2021/05/13 11:01:34;;;;;;;2.75;1.38;;;;;28.10;100592.00;;;;5011113;28;20636;-79
2021/05/13 11:04:41;;;;;;;3.97;1.67;;;;;28.10;100583.00;;;;5011068;28;20640;-78
2021/05/13 11:07:28;;;;;;;3.15;1.27;;;;;28.10;100583.00;;;;5009657;28;20278;-78
2021/05/13 11:10:04;;;;;;;2.75;1.98;;;;;28.10;100579.00;;;;5010548;28;20682;-79
2021/05/13 11:15:46;;;;;;;1.52;1.13;;;;;27.90;100577.00;;;;5010870;28;20227;-78
2021/05/13 11:21:16;;;;;;;3.88;1.90;;;;;27.90;100586.00;;;;5029430;28;20640;-78
2021/05/13 11:23:48;;;;;;;2.08;1.25;;;;;27.80;100583.00;;;;5030044;28;20258;-78
2021/05/13 11:26:15;;;;;;;3.67;1.38;;;;;27.80;100580.00;;;;5028995;28;20205;-78
2021/05/13 11:29:00;;;;;;;2.20;1.58;;;;;27.70;100574.00;;;;5029674;28;20690;-78
2021/05/13 11:34:34;;;;;;;3.15;1.08;;;;;27.60;100571.00;;;;5009799;28;20212;-78
2021/05/13 11:37:38;;;;;;;2.60;1.13;;;;;27.40;100571.00;;;;5009233;28;20204;-78
2021/05/13 11:43:24;;;;;;;2.72;1.50;;;;;27.20;100574.00;;;;5009607;28;20732;-78
2021/05/13 11:45:53;;;;;;;2.92;1.70;;;;;27.10;100579.00;;;;5009950;28;20229;-77
2021/05/13 11:48:32;;;;;;;2.90;1.40;;;;;26.90;100572.00;;;;5010238;28;20542;-77
2021/05/13 11:51:02;;;;;;;2.80;1.25;;;;;26.80;100581.00;;;;5009539;28;20694;-77
2021/05/13 11:53:29;;;;;;;2.83;1.40;;;;;26.70;100575.00;;;;5009865;28;20216;-77
2021/05/13 11:55:56;;;;;;;2.00;1.25;;;;;26.60;100574.00;;;;5023120;28;20216;-77
2021/05/13 11:58:41;;;;;;;5.05;1.90;;;;;26.30;100575.00;;;;5029649;28;20227;-78
2021/05/13 12:04:34;;;;;;;3.15;1.20;;;;;26.20;100570.00;;;;5029256;28;20208;-77
2021/05/13 12:07:19;;;;;;;3.17;1.15;;;;;26.10;100559.00;;;;5011292;28;20591;-78
2021/05/13 12:09:49;;;;;;;2.92;1.50;;;;;26.10;100556.00;;;;5009372;28;20576;-78
2021/05/13 12:18:17;;;;;;;1.80;1.08;;;;;26.10;100547.00;;;;5009177;28;20634;-77
2021/05/13 12:20:45;;;;;;;2.28;1.40;;;;;26.10;100543.00;;;;5021136;28;20216;-77
2021/05/13 12:23:49;;;;;;;2.90;1.27;;;;;26.10;100544.00;;;;5016311;28;20201;-77
2021/05/13 12:26:21;;;;;;;3.15;1.42;;;;;26.20;100540.00;;;;5008064;28;20208;-77
2021/05/13 12:29:12;;;;;;;2.67;1.15;;;;;26.20;100546.00;;;;5009116;28;20205;-76
2021/05/13 12:31:39;;;;;;;1.88;1.55;;;;;26.40;100545.00;;;;5009142;28;20232;-77
2021/05/13 12:34:07;;;;;;;2.35;1.20;;;;;26.40;100540.00;;;;5008781;28;20236;-77
2021/05/13 12:36:36;;;;;;;3.53;1.20;;;;;26.50;100543.00;;;;5008769;28;20212;-77
2021/05/13 12:39:05;;;;;;;3.45;1.00;;;;;26.60;100530.00;;;;5010973;28;20209;-77
2021/05/13 12:41:32;;;;;;;1.67;1.30;;;;;26.70;100540.00;;;;5028341;28;20204;-77
2021/05/13 12:44:07;;;;;;;5.00;1.58;;;;;26.90;100539.00;;;;5028503;28;20212;-78
2021/05/13 12:47:01;;;;;;;2.08;1.20;;;;;27.00;100535.00;;;;5028352;28;20220;-78
2021/05/13 12:49:29;;;;;;;2.95;1.40;;;;;27.20;100536.00;;;;5027983;28;20542;-78
2021/05/13 12:52:02;;;;;;;1.20;0.95;;;;;27.30;100535.00;;;;5028198;28;20240;-77
2021/05/13 12:57:17;;;;;;;1.38;0.95;;;;;27.60;100533.00;;;;5020004;28;20246;-77
2021/05/13 12:59:53;;;;;;;2.25;1.20;;;;;27.60;100530.00;;;;5027985;28;20192;-78
2021/05/13 13:02:21;;;;;;;1.70;0.93;;;;;27.70;100532.00;;;;5027943;28;20512;-78
2021/05/13 13:07:55;;;;;;;2.72;0.80;;;;;27.80;100525.00;;;;5028147;28;20203;-78
2021/05/13 13:10:27;;;;;;;1.45;0.98;;;;;27.90;100516.00;;;;5027548;28;20287;-77
2021/05/13 13:13:12;;;;;;;1.60;1.00;;;;;28.00;100511.00;;;;5026861;28;20196;-78
2021/05/13 13:15:44;;;;;;;1.90;0.95;;;;;28.20;100519.00;;;;5028176;28;20658;-78
2021/05/13 13:18:12;;;;;;;3.50;1.35;;;;;28.30;100511.00;;;;5027540;28;20257;-77
2021/05/13 13:21:09;;;;;;;2.40;1.40;;;;;28.30;100511.00;;;;5028498;28;20227;-77
2021/05/13 13:27:18;;;;;;;2.45;0.95;;;;;28.40;100502.00;;;;5027303;28;20219;-77
2021/05/13 13:29:45;;;;;;;2.50;1.50;;;;;28.50;100501.00;;;;5027962;28;20203;-77
2021/05/13 13:44:28;;;;;;;1.42;1.10;;;;;28.00;100503.00;;;;5019465;28;20616;-77
2021/05/13 13:47:13;;;;;;;1.75;1.15;;;;;28.00;100512.00;;;;5031497;28;20204;-77
2021/05/13 13:49:40;;;;;;;3.97;1.13;;;;;27.80;100503.00;;;;5012398;28;20210;-78
2021/05/13 13:52:07;;;;;;;2.83;1.17;;;;;27.70;100503.00;;;;5011940;28;20228;-77
2021/05/13 13:55:11;;;;;;;2.05;1.60;;;;;27.40;100494.00;;;;5025798;28;20685;-77
2021/05/13 13:57:57;;;;;;;2.72;1.17;;;;;27.30;100498.00;;;;5031900;28;20231;-77
2021/05/13 14:00:25;;;;;;;1.15;1.00;;;;;27.20;100493.00;;;;5031400;28;20208;-77
2021/05/13 14:09:19;;;;;;;2.72;1.70;;;;;26.70;100501.00;;;;5012433;28;20204;-77
2021/05/13 14:12:04;;;;;;;3.10;1.65;;;;;26.60;100497.00;;;;5012170;28;20239;-78
2021/05/13 14:14:32;;;;;;;4.63;1.75;;;;;26.70;100501.00;;;;5011876;28;20308;-77
2021/05/13 14:17:20;;;;;;;3.65;1.63;;;;;26.60;100493.00;;;;5012165;28;20224;-77
2021/05/13 14:19:47;;;;;;;4.13;1.60;;;;;26.50;100490.00;;;;5011203;28;20307;-76
2021/05/13 14:28:22;;;;;;;2.78;1.35;;;;;27.30;100486.00;;;;5031009;28;20250;-78
2021/05/13 14:31:08;;;;;;;2.85;1.85;;;;;27.30;100482.00;;;;5030800;28;20227;-78
2021/05/13 14:33:35;;;;;;;1.67;1.20;;;;;27.60;100480.00;;;;5031467;28;20208;-78
2021/05/13 14:36:20;;;;;;;1.88;1.50;;;;;27.90;100487.00;;;;5031355;28;20200;-78
2021/05/13 14:39:24;;;;;;;2.17;1.40;;;;;28.10;100484.00;;;;5029640;28;20204;-77
2021/05/13 14:42:10;;;;;;;4.47;1.65;;;;;28.40;100477.00;;;;5030325;28;20208;-78
2021/05/13 14:44:36;;;;;;;5.05;2.00;;;;;28.50;100477.00;;;;5031285;28;20228;-78
2021/05/13 14:53:30;;;;;;;3.13;1.63;;;;;28.90;100477.00;;;;5031213;28;20235;-77
2021/05/13 14:55:57;;;;;;;4.85;1.55;;;;;29.40;100473.00;;;;5012249;28;20205;-78
2021/05/13 14:58:48;;;;;;;3.53;1.70;;;;;29.90;100477.00;;;;5010947;28;20236;-78
2021/05/13 15:01:34;;;;;;;2.50;1.88;;;;;30.50;100476.00;;;;5010853;28;20544;-77
2021/05/13 15:04:38;;;;;;;1.58;1.20;;;;;30.90;100472.00;;;;5010496;28;20290;-78
2021/05/13 15:07:24;;;;;;;2.22;1.27;;;;;31.30;100470.00;;;;5010726;28;20201;-77
2021/05/13 15:15:40;;;;;;;2.08;1.45;;;;;31.20;100470.00;;;;5010653;28;20717;-77
2021/05/13 15:18:44;;;;;;;1.50;1.40;;;;;30.90;100465.00;;;;5010243;28;20201;-78
2021/05/13 15:21:11;;;;;;;2.38;1.17;;;;;30.60;100466.00;;;;5010300;28;20203;-77
2021/05/13 15:23:38;;;;;;;1.45;1.27;;;;;30.20;100464.00;;;;5020536;28;20220;-77
2021/05/13 15:26:24;;;;;;;3.75;1.92;;;;;29.70;100477.00;;;;5030634;28;20211;-77
2021/05/13 15:28:51;;;;;;;2.20;1.30;;;;;29.50;100473.00;;;;5029804;28;20200;-77
2021/05/13 15:31:37;;;;;;;2.42;1.42;;;;;29.20;100475.00;;;;5030211;28;20224;-76
2021/05/13 15:34:03;;;;;;;2.60;1.60;;;;;28.80;100469.00;;;;5030326;28;20629;-77
2021/05/13 15:36:30;;;;;;;2.63;1.75;;;;;28.50;100472.00;;;;5030536;28;20266;-76
2021/05/13 15:39:16;;;;;;;2.60;1.50;;;;;28.10;100463.00;;;;5030264;28;20691;-76
2021/05/13 15:42:02;;;;;;;2.13;1.67;;;;;28.00;100466.00;;;;5030351;28;20204;-77
2021/05/13 15:44:28;;;;;;;2.92;1.20;;;;;27.70;100462.00;;;;5029846;28;20232;-77
2021/05/13 15:47:14;;;;;;;2.00;1.75;;;;;27.40;100461.00;;;;5029348;28;20204;-77
2021/05/13 15:49:41;;;;;;;2.45;1.20;;;;;27.20;100463.00;;;;5029853;28;20215;-76
2021/05/13 15:52:08;;;;;;;2.88;1.70;;;;;27.00;100462.00;;;;5029291;28;20628;-76
2021/05/13 15:54:36;;;;;;;4.28;1.30;;;;;26.70;100463.00;;;;5029307;28;20204;-77
2021/05/13 15:57:03;;;;;;;1.73;1.30;;;;;26.50;100459.00;;;;5030056;28;20627;-77
2021/05/13 15:59:48;;;;;;;2.58;1.52;;;;;26.30;100470.00;;;;5024549;28;20201;-76
2021/05/13 16:02:14;;;;;;;2.28;1.17;;;;;26.10;100458.00;;;;5009427;28;20205;-76
2021/05/13 16:07:26;;;;;;;2.42;1.50;;;;;25.80;100451.00;;;;5009600;28;20212;-76
2021/05/13 16:10:13;;;;;;;3.70;1.42;;;;;25.50;100446.00;;;;5009401;28;20208;-76
2021/05/13 16:12:45;;;;;;;2.80;1.33;;;;;25.50;100450.00;;;;5009620;28;20224;-75
2021/05/13 16:18:18;;;;;;;2.80;1.52;;;;;25.10;100455.00;;;;5008671;28;20597;-76
2021/05/13 16:20:44;;;;;;;2.33;0.98;;;;;25.10;100452.00;;;;5018251;28;20221;-76
2021/05/13 16:23:11;;;;;;;1.80;1.13;;;;;25.00;100455.00;;;;5009481;28;20197;-75
2021/05/13 16:25:39;;;;;;;2.40;1.40;;;;;25.00;100452.00;;;;5022801;28;20208;-76
2021/05/13 16:31:09;;;;;;;1.70;1.30;;;;;24.70;100493.00;;;;5029776;28;20219;-77
2021/05/13 16:33:36;;;;;;;2.22;1.15;;;;;24.70;100491.00;;;;5028797;28;20258;-77
2021/05/13 16:36:41;;;;;;;1.48;1.10;;;;;24.40;100497.00;;;;5028846;28;20765;-77
2021/05/13 16:39:08;;;;;;;3.50;0.95;;;;;24.30;100494.00;;;;5028431;28;20208;-77
2021/05/13 16:41:36;;;;;;;3.42;1.60;;;;;24.10;100496.00;;;;5029298;28;20322;-77
2021/05/13 16:44:03;;;;;;;2.22;1.50;;;;;23.90;100502.00;;;;5024613;28;20246;-77
2021/05/13 16:46:30;;;;;;;2.28;1.58;;;;;23.80;100525.00;;;;5009333;28;20283;-77
2021/05/13 16:52:38;;;;;;;2.08;1.45;;;;;23.20;100518.00;;;;5009063;28;20239;-78
2021/05/13 17:01:50;;;;;;;3.55;2.25;;;;;22.60;100532.00;;;;5028383;28;20995;-77
2021/05/13 17:04:38;;;;;;;5.05;2.10;;;;;22.40;100537.00;;;;5028373;28;20557;-77
2021/05/13 17:10:28;;;;;;;3.78;1.95;;;;;22.10;100532.00;;;;5028432;28;20277;-75
2021/05/13 17:15:59;;;;;;;2.95;1.73;;;;;21.80;100534.00;;;;5008167;28;20694;-76
2021/05/13 17:18:26;;;;;;;2.08;1.52;;;;;21.60;100533.00;;;;5008416;28;20200;-76
2021/05/13 17:24:15;;;;;;;3.95;1.85;;;;;21.30;100546.00;;;;5008041;28;20236;-74
2021/05/13 17:26:42;;;;;;;2.25;1.90;;;;;21.20;100565.00;;;;5018141;28;20204;-74
2021/05/13 17:29:46;;;;;;;3.47;2.05;;;;;21.00;100577.00;;;;5016383;28;20217;-75
2021/05/13 17:32:14;;;;;;;3.53;2.00;;;;;21.00;100571.00;;;;5007621;28;20220;-75
2021/05/13 17:34:40;;;;;;;2.75;2.05;;;;;20.90;100568.00;;;;5009261;28;20209;-75